Time;durP1;ratioP1;P1;durP2;ratioP2;P2;SDS_P1;SDS_P2;PMS_P1;PMS_P2;Temp;Humidity;BMP_temperature;BMP_pressure;BME280_temperature;BME280_humidity;BME280_pressure;Samples;Min_cycle;Max_cycle;Signal;HPM_P1;HPM_P2
2023/08/27 00:01:15;;;;;;;2.25;1.70;;;;;;;24.16;48.67;101040.00;5003290;28;20038;-35
2023/08/27 00:03:41;;;;;;;3.00;1.83;;;;;;;24.14;49.48;101033.97;5005795;28;20323;-35
2023/08/27 00:06:09;;;;;;;2.53;1.88;;;;;;;24.13;49.22;101037.72;5005171;28;21071;-35
2023/08/27 00:08:35;;;;;;;2.58;1.90;;;;;;;24.10;49.26;101030.78;5004139;28;20069;-35
2023/08/27 00:11:04;;;;;;;2.72;1.70;;;;;;;24.10;49.48;101029.97;5005537;28;20616;-35
2023/08/27 00:13:31;;;;;;;2.80;1.90;;;;;;;24.08;49.38;101027.44;5006690;28;20065;-35
2023/08/27 00:15:58;;;;;;;4.05;1.88;;;;;;;24.07;49.23;101028.47;5008877;28;20054;-35
2023/08/27 00:18:25;;;;;;;3.58;1.77;;;;;;;24.06;49.53;101025.94;5006618;28;20046;-35
2023/08/27 00:20:51;;;;;;;2.63;1.80;;;;;;;24.05;49.20;101025.13;5009383;28;20276;-35
2023/08/27 00:23:18;;;;;;;3.42;2.17;;;;;;;24.03;49.05;101023.59;5009475;28;20100;-35
2023/08/27 00:25:45;;;;;;;2.70;1.65;;;;;;;24.02;48.88;101028.19;5010776;28;20053;-35
2023/08/27 00:28:15;;;;;;;2.60;1.90;;;;;;;24.01;48.89;101029.22;5010004;28;20444;-35
2023/08/27 00:30:42;;;;;;;2.30;1.70;;;;;;;24.00;49.35;101029.41;5010167;28;20042;-35
2023/08/27 00:33:09;;;;;;;2.42;1.63;;;;;;;23.99;49.01;101027.72;5009047;28;20045;-35
2023/08/27 00:35:36;;;;;;;2.33;1.65;;;;;;;23.97;49.24;101017.09;5007817;28;20037;-35
2023/08/27 00:38:06;;;;;;;2.15;1.65;;;;;;;23.97;49.28;101025.22;5010697;28;20545;-35
2023/08/27 00:40:33;;;;;;;2.42;1.48;;;;;;;23.96;49.40;101018.13;5010251;28;20049;-35
2023/08/27 00:43:00;;;;;;;2.42;1.92;;;;;;;23.95;49.68;101016.44;5009893;28;20100;-35
2023/08/27 00:45:28;;;;;;;2.53;1.67;;;;;;;23.94;49.73;101001.22;5008411;28;20050;-35
2023/08/27 00:47:55;;;;;;;2.75;1.90;;;;;;;23.93;49.49;101001.41;5009638;28;20061;-35
2023/08/27 00:50:22;;;;;;;2.08;1.30;;;;;;;23.91;49.33;101000.75;5010067;28;20092;-35
2023/08/27 00:52:49;;;;;;;2.00;1.50;;;;;;;23.89;49.74;100996.38;5004737;28;20045;-35
2023/08/27 00:55:16;;;;;;;2.45;1.60;;;;;;;23.88;49.71;100983.03;5006771;28;20049;-35
2023/08/27 00:57:43;;;;;;;2.10;1.55;;;;;;;23.85;49.40;100978.84;5003853;28;20412;-35
2023/08/27 01:00:10;;;;;;;3.92;1.98;;;;;;;23.85;49.73;100969.88;5006748;28;20421;-35
2023/08/27 01:02:38;;;;;;;2.05;1.60;;;;;;;23.84;49.46;100965.47;5004836;28;20050;-35
2023/08/27 01:05:05;;;;;;;2.58;1.85;;;;;;;23.83;49.30;100961.09;5002441;28;20353;-35
2023/08/27 01:07:39;;;;;;;2.22;1.67;;;;;;;23.81;49.38;100949.63;5003512;28;20052;-35
2023/08/27 01:10:17;;;;;;;2.25;1.65;;;;;;;23.81;49.78;100936.09;5005230;28;20529;-35
2023/08/27 01:13:07;;;;;;;2.70;1.60;;;;;;;23.78;49.92;100940.00;5005962;28;20501;-35
2023/08/27 01:15:35;;;;;;;2.05;1.27;;;;;;;23.80;49.34;100956.03;5006507;28;20131;-35
2023/08/27 01:18:03;;;;;;;2.70;1.55;;;;;;;23.79;49.29;100957.91;5004815;28;20148;-35
2023/08/27 01:20:31;;;;;;;2.72;1.58;;;;;;;23.78;49.88;100958.13;5005607;28;20131;-35
2023/08/27 01:22:57;;;;;;;1.90;1.42;;;;;;;23.77;49.75;100957.28;5005514;28;20109;-35
2023/08/27 01:25:34;;;;;;;2.58;1.77;;;;;;;23.75;49.86;100958.50;5008426;28;20081;-36
2023/08/27 01:28:13;;;;;;;2.38;1.52;;;;;;;23.75;49.38;100958.50;5007611;28;20131;-36
2023/08/27 01:30:51;;;;;;;2.80;1.40;;;;;;;23.74;49.82;100951.41;5007635;28;20104;-36
2023/08/27 01:33:25;;;;;;;3.65;1.50;;;;;;;23.72;50.10;100948.03;5007918;28;20049;-36
2023/08/27 01:35:53;;;;;;;2.60;1.60;;;;;;;23.72;49.83;100950.75;5010363;28;20058;-36
2023/08/27 01:38:20;;;;;;;1.77;1.27;;;;;;;23.71;49.62;100938.25;5008847;28;20054;-35
2023/08/27 01:40:46;;;;;;;2.53;1.52;;;;;;;23.70;49.65;100940.13;5010385;28;20053;-35
2023/08/27 01:43:13;;;;;;;1.85;1.40;;;;;;;23.70;49.89;100928.44;5009254;28;20454;-35
2023/08/27 01:45:40;;;;;;;2.42;1.35;;;;;;;23.69;49.62;100934.91;5008592;28;20152;-35
2023/08/27 01:48:06;;;;;;;2.72;1.30;;;;;;;23.68;49.57;100928.66;5011991;28;20046;-35
2023/08/27 01:50:33;;;;;;;2.15;1.33;;;;;;;23.68;49.68;100938.63;5012001;28;20073;-35
2023/08/27 01:52:59;;;;;;;2.55;1.73;;;;;;;23.67;50.10;100940.47;5008119;28;20429;-35
2023/08/27 01:55:26;;;;;;;2.55;1.48;;;;;;;23.66;49.65;100936.09;5012587;28;20429;-35
2023/08/27 01:57:53;;;;;;;1.90;1.40;;;;;;;23.64;49.80;100938.97;5010765;28;20104;-35
2023/08/27 02:00:20;;;;;;;1.50;1.00;;;;;;;23.63;50.17;100942.69;5008854;28;20058;-35
2023/08/27 02:02:47;;;;;;;1.83;1.52;;;;;;;23.62;49.76;100935.59;5008732;28;20133;-35
2023/08/27 02:05:14;;;;;;;1.58;1.27;;;;;;;23.60;50.36;100937.69;5008097;28;20050;-35
2023/08/27 02:07:41;;;;;;;1.75;1.23;;;;;;;23.60;49.50;100937.69;5009296;28;20104;-35
2023/08/27 02:10:09;;;;;;;1.67;1.20;;;;;;;23.59;49.69;100935.97;5008254;28;20045;-35
2023/08/27 02:12:35;;;;;;;2.05;1.45;;;;;;;23.58;50.13;100942.44;5009767;28;20065;-35
2023/08/27 02:15:03;;;;;;;1.90;1.33;;;;;;;23.58;49.77;100945.13;5008554;28;20119;-35
2023/08/27 02:17:30;;;;;;;2.65;1.30;;;;;;;23.57;49.55;100948.88;5009581;28;20441;-35
2023/08/27 02:19:56;;;;;;;3.25;1.35;;;;;;;23.56;50.37;100941.78;5012095;28;20046;-35
2023/08/27 02:22:23;;;;;;;1.85;1.23;;;;;;;23.55;49.93;100937.38;5007627;28;20200;-36
2023/08/27 02:24:50;;;;;;;2.30;1.20;;;;;;;23.55;49.68;100939.25;5009387;28;20137;-35
2023/08/27 02:27:17;;;;;;;1.45;1.30;;;;;;;23.54;50.13;100935.72;5011229;28;20452;-35
2023/08/27 02:29:43;;;;;;;2.50;1.70;;;;;;;23.54;49.71;100932.16;5008041;28;20073;-35
2023/08/27 02:32:10;;;;;;;1.70;1.20;;;;;;;23.54;49.76;100938.41;5008204;28;20054;-35
2023/08/27 02:34:37;;;;;;;1.60;1.30;;;;;;;23.54;50.15;100937.59;5009826;28;20042;-35
2023/08/27 02:37:03;;;;;;;1.83;1.40;;;;;;;23.52;49.73;100939.66;5008799;28;21358;-36
2023/08/27 02:39:30;;;;;;;2.08;1.17;;;;;;;23.53;49.85;100947.56;5010010;28;20042;-35
2023/08/27 02:41:56;;;;;;;2.00;1.20;;;;;;;23.52;50.10;100945.91;5007951;28;20073;-35
2023/08/27 02:44:23;;;;;;;2.20;1.50;;;;;;;23.52;50.24;100940.50;5010543;28;20104;-35
2023/08/27 02:46:49;;;;;;;1.65;1.27;;;;;;;23.51;50.40;100943.38;5010141;28;20069;-35
2023/08/27 02:49:16;;;;;;;1.75;1.25;;;;;;;23.50;50.25;100947.94;5009445;28;20202;-35
2023/08/27 02:51:43;;;;;;;1.40;1.10;;;;;;;23.51;50.06;100946.06;5008759;28;20046;-35
2023/08/27 02:54:09;;;;;;;1.98;1.15;;;;;;;23.50;50.25;100934.41;5006661;28;20132;-35
2023/08/27 02:56:36;;;;;;;1.52;1.38;;;;;;;23.48;50.14;100939.19;5007365;28;20096;-35
2023/08/27 02:59:04;;;;;;;3.63;1.20;;;;;;;23.50;50.22;100941.69;5010841;28;20085;-35
2023/08/27 03:01:31;;;;;;;2.50;1.33;;;;;;;23.49;50.18;100948.97;5011433;28;20042;-35
2023/08/27 03:03:58;;;;;;;1.73;1.00;;;;;;;23.47;49.66;100937.47;5010447;28;20085;-35
2023/08/27 03:06:25;;;;;;;1.73;1.27;;;;;;;23.47;50.13;100937.47;5012972;28;20105;-35
2023/08/27 03:08:51;;;;;;;1.52;1.10;;;;;;;23.47;50.25;100948.31;5007150;28;20050;-35
2023/08/27 03:11:18;;;;;;;2.15;1.40;;;;;;;23.48;49.88;100949.13;5009219;28;20345;-35
2023/08/27 03:13:45;;;;;;;1.85;1.33;;;;;;;23.47;50.72;100945.59;5012631;28;20054;-35
2023/08/27 03:16:11;;;;;;;2.88;1.30;;;;;;;23.46;50.35;100937.69;5011646;28;20058;-35
2023/08/27 03:18:38;;;;;;;2.25;1.38;;;;;;;23.46;50.47;100940.38;5010076;28;20057;-35
2023/08/27 03:21:05;;;;;;;1.73;1.30;;;;;;;23.45;49.94;100944.97;5012711;28;20141;-35
2023/08/27 03:23:35;;;;;;;1.92;1.15;;;;;;;23.46;50.05;100945.78;5008788;28;20133;-35
2023/08/27 03:26:02;;;;;;;2.13;1.08;;;;;;;23.46;49.87;100940.38;5010638;28;20085;-35
2023/08/27 03:28:28;;;;;;;1.63;1.25;;;;;;;23.44;50.52;100937.88;5008231;28;20342;-35
2023/08/27 03:30:55;;;;;;;2.08;1.13;;;;;;;23.45;50.44;100941.44;5011036;28;20065;-35
2023/08/27 03:33:22;;;;;;;2.25;1.30;;;;;;;23.43;50.07;100936.19;5009007;28;20104;-35
2023/08/27 03:35:54;;;;;;;1.42;1.00;;;;;;;23.43;50.43;100946.16;5008645;28;20042;-35
2023/08/27 03:38:20;;;;;;;1.33;0.95;;;;;;;23.43;50.12;100943.47;5004659;28;20108;-35
2023/08/27 03:40:49;;;;;;;1.33;1.10;;;;;;;23.42;50.02;100941.78;5007047;28;20081;-35
2023/08/27 03:43:16;;;;;;;2.60;1.10;;;;;;;23.40;50.29;100942.81;5009576;28;20124;-36
2023/08/27 03:45:43;;;;;;;1.52;1.40;;;;;;;23.40;49.99;100942.00;5009400;28;20600;-36
2023/08/27 03:48:09;;;;;;;1.77;1.05;;;;;;;23.39;49.98;100935.72;5009133;28;20046;-35
2023/08/27 03:50:36;;;;;;;3.83;1.77;;;;;;;23.39;50.30;100937.59;5008231;28;20092;-36
2023/08/27 03:53:04;;;;;;;1.58;1.02;;;;;;;23.38;50.47;100944.03;5007018;28;20504;-35
2023/08/27 03:55:36;;;;;;;1.20;1.10;;;;;;;23.37;50.54;100948.59;5007925;28;20105;-35
2023/08/27 03:58:03;;;;;;;1.10;1.00;;;;;;;23.38;50.51;100947.56;5007323;28;20046;-35
2023/08/27 04:00:29;;;;;;;2.05;1.30;;;;;;;23.38;49.92;100938.63;5008357;28;20042;-35
2023/08/27 04:02:56;;;;;;;1.38;1.02;;;;;;;23.36;50.28;100941.53;5007275;28;20050;-35
2023/08/27 04:05:23;;;;;;;1.80;0.98;;;;;;;23.37;50.44;100951.31;5009476;28;20061;-35
2023/08/27 04:07:49;;;;;;;2.53;1.30;;;;;;;23.36;50.15;100948.78;5008073;28;20104;-35
2023/08/27 04:10:16;;;;;;;1.23;0.95;;;;;;;23.35;50.47;100950.63;5005741;28;21618;-35
2023/08/27 04:12:42;;;;;;;2.22;1.02;;;;;;;23.36;49.94;100948.78;5009831;28;20046;-35
2023/08/27 04:15:09;;;;;;;2.22;1.35;;;;;;;23.35;50.05;100964.16;5003310;28;20080;-35
2023/08/27 04:17:36;;;;;;;1.40;1.25;;;;;;;23.34;50.30;100953.53;5005534;28;20477;-35
2023/08/27 04:20:03;;;;;;;1.05;0.95;;;;;;;23.35;50.60;100955.22;5006791;28;20441;-35
2023/08/27 04:22:30;;;;;;;1.23;1.05;;;;;;;23.33;50.14;100943.75;5007542;28;20046;-35
2023/08/27 04:24:56;;;;;;;1.77;1.40;;;;;;;23.33;50.62;100954.56;5005944;28;20336;-35
2023/08/27 04:27:23;;;;;;;1.90;1.17;;;;;;;23.32;50.54;100944.78;5007824;28;20129;-35
2023/08/27 04:29:49;;;;;;;1.02;0.90;;;;;;;23.32;50.44;100940.22;5010470;28;20046;-35
2023/08/27 04:32:16;;;;;;;2.00;1.40;;;;;;;23.32;50.80;100929.41;5007925;28;20446;-35
2023/08/27 04:34:43;;;;;;;2.72;1.30;;;;;;;23.32;50.20;100929.41;5006973;28;20074;-35
2023/08/27 04:37:09;;;;;;;1.25;1.08;;;;;;;23.31;50.27;100926.84;5008266;28;20050;-35
2023/08/27 04:39:36;;;;;;;2.33;1.15;;;;;;;23.31;50.05;100927.69;5009794;28;20092;-35
2023/08/27 04:42:03;;;;;;;4.93;1.20;;;;;;;23.31;50.65;100924.16;5009186;28;20099;-35
2023/08/27 04:44:31;;;;;;;2.03;0.98;;;;;;;23.30;50.43;100927.88;5008672;28;20116;-35
2023/08/27 04:46:58;;;;;;;1.63;1.25;;;;;;;23.30;50.57;100931.44;5008679;28;20081;-35
2023/08/27 04:49:24;;;;;;;1.88;1.15;;;;;;;23.31;50.54;100922.28;5005662;28;20056;-35
2023/08/27 04:51:51;;;;;;;2.22;1.17;;;;;;;23.30;50.70;100920.63;5010021;28;20065;-35
2023/08/27 04:54:17;;;;;;;1.58;1.00;;;;;;;23.29;50.43;100927.06;5007749;28;20077;-35
2023/08/27 04:56:44;;;;;;;1.65;1.30;;;;;;;23.29;50.70;100924.34;5010624;28;20050;-35
2023/08/27 04:59:10;;;;;;;1.10;0.90;;;;;;;23.29;50.51;100923.50;5006961;28;20058;-35
2023/08/27 05:01:37;;;;;;;1.83;1.25;;;;;;;23.29;50.73;100924.34;5006607;28;20451;-35
2023/08/27 05:04:04;;;;;;;2.50;0.90;;;;;;;23.29;50.76;100932.47;5005571;28;20426;-35
2023/08/27 05:06:31;;;;;;;1.20;1.10;;;;;;;23.29;50.88;100928.94;5005698;28;20049;-35
2023/08/27 05:08:57;;;;;;;3.65;1.35;;;;;;;23.29;50.41;100928.94;5006597;28;20065;-35
2023/08/27 05:11:24;;;;;;;2.25;1.08;;;;;;;23.29;50.66;100926.22;5001422;28;20329;-35
2023/08/27 05:13:50;;;;;;;2.15;1.50;;;;;;;23.29;50.61;100931.63;5003205;28;20045;-35
2023/08/27 05:16:17;;;;;;;1.90;1.20;;;;;;;23.30;50.76;100933.31;5001206;28;20132;-35
2023/08/27 05:18:44;;;;;;;3.22;2.10;;;;;;;23.28;50.50;100933.50;5004003;28;20057;-35
2023/08/27 05:21:10;;;;;;;3.75;2.13;;;;;;;23.29;50.88;100935.16;5000777;28;20140;-35
2023/08/27 05:23:37;;;;;;;3.90;2.40;;;;;;;23.31;50.47;100929.56;4999537;28;20077;-35
2023/08/27 05:26:03;;;;;;;3.95;2.30;;;;;;;23.30;50.38;100930.59;5001851;28;20053;-35
2023/08/27 05:28:30;;;;;;;3.60;2.40;;;;;;;23.30;50.59;100928.72;5008637;28;20046;-35
2023/08/27 05:30:56;;;;;;;4.35;2.60;;;;;;;23.30;50.37;100926.03;5007412;28;20108;-36
2023/08/27 05:33:23;;;;;;;5.40;2.75;;;;;;;23.31;50.65;100926.84;5005478;28;20559;-35
2023/08/27 05:35:50;;;;;;;4.93;2.88;;;;;;;23.31;50.81;100922.28;5005837;28;20061;-36
2023/08/27 05:38:17;;;;;;;5.10;2.60;;;;;;;23.32;50.30;100917.75;5006914;28;20132;-35
2023/08/27 05:40:43;;;;;;;5.97;2.70;;;;;;;23.31;50.24;100919.56;5003890;28;20441;-35
2023/08/27 05:43:10;;;;;;;3.92;2.75;;;;;;;23.32;50.75;100928.56;5006201;28;20481;-35
2023/08/27 05:45:36;;;;;;;4.32;2.95;;;;;;;23.31;50.21;100918.75;5007016;28;20058;-35
2023/08/27 05:48:03;;;;;;;5.60;2.58;;;;;;;23.31;50.66;100913.34;5008364;28;20445;-35
2023/08/27 05:50:33;;;;;;;4.25;2.83;;;;;;;23.30;50.60;100908.97;5006058;28;20050;-35
2023/08/27 05:53:02;;;;;;;5.00;2.95;;;;;;;23.31;50.34;100910.63;5004693;28;20057;-35
2023/08/27 05:55:28;;;;;;;3.50;2.28;;;;;;;23.29;50.13;100916.25;5007719;28;20144;-35
2023/08/27 05:57:55;;;;;;;5.35;3.05;;;;;;;23.29;50.78;100928.94;5003423;28;20049;-35
2023/08/27 06:00:21;;;;;;;3.85;2.05;;;;;;;23.30;50.20;100928.72;5003932;28;20133;-35
2023/08/27 06:02:48;;;;;;;3.30;2.22;;;;;;;23.28;50.40;100927.25;5001895;28;20518;-35
2023/08/27 06:05:15;;;;;;;5.20;2.67;;;;;;;23.28;50.78;100929.97;5003854;28;20060;-35
2023/08/27 06:07:41;;;;;;;4.18;2.58;;;;;;;23.27;50.72;100926.38;5001768;28;20314;-35
2023/08/27 06:10:08;;;;;;;6.15;3.13;;;;;;;23.27;50.08;100922.84;5007873;28;20392;-35
2023/08/27 06:12:35;;;;;;;7.25;4.53;;;;;;;23.27;50.54;100918.28;5007291;28;20050;-35
2023/08/27 06:15:04;;;;;;;9.80;6.03;;;;;;;23.26;50.42;100905.78;5008066;28;20081;-35
2023/08/27 06:17:31;;;;;;;12.75;5.97;;;;;;;23.26;50.78;100908.50;5007976;28;20104;-35
2023/08/27 06:19:57;;;;;;;9.07;5.75;;;;;;;23.26;50.17;100907.66;5002847;28;20050;-36
2023/08/27 06:22:24;;;;;;;9.75;5.65;;;;;;;23.27;50.32;100906.63;5003522;28;20125;-35
2023/08/27 06:24:51;;;;;;;8.80;5.78;;;;;;;23.28;50.93;100911.84;5008776;28;20077;-35
2023/08/27 06:27:17;;;;;;;9.85;5.60;;;;;;;23.28;50.23;100906.44;5005828;28;20057;-35
2023/08/27 06:29:44;;;;;;;11.38;5.75;;;;;;;23.29;50.33;100905.41;5005269;28;20091;-35
2023/08/27 06:32:13;;;;;;;10.60;5.63;;;;;;;23.30;50.17;100900.84;5002262;28;20050;-35
2023/08/27 06:34:40;;;;;;;8.82;5.45;;;;;;;23.29;50.48;100902.72;5005049;28;20462;-35
2023/08/27 06:37:07;;;;;;;9.82;4.80;;;;;;;23.31;50.89;100902.50;5004515;28;20064;-35
2023/08/27 06:39:33;;;;;;;7.57;4.75;;;;;;;23.31;50.42;100891.69;5007576;28;20057;-35
2023/08/27 06:42:00;;;;;;;11.13;6.90;;;;;;;23.31;50.13;100895.22;5008982;28;20054;-35
2023/08/27 06:44:26;;;;;;;13.82;8.27;;;;;;;23.32;50.56;100888.81;5011410;28;20104;-35
2023/08/27 06:46:53;;;;;;;13.90;8.45;;;;;;;23.33;50.14;100889.66;5010963;28;20089;-36
2023/08/27 06:49:20;;;;;;;11.82;7.53;;;;;;;23.33;50.42;100892.38;5010090;28;20086;-35
2023/08/27 06:51:46;;;;;;;10.73;7.40;;;;;;;23.33;50.64;100895.91;5006577;28;20119;-35
2023/08/27 06:54:13;;;;;;;11.73;6.78;;;;;;;23.34;50.21;100888.63;5005861;28;21398;-35
2023/08/27 06:56:40;;;;;;;10.95;7.00;;;;;;;23.35;50.21;100884.88;5003077;28;20468;-35
2023/08/27 06:59:07;;;;;;;14.63;6.88;;;;;;;23.35;50.85;100888.44;5006325;28;20053;-35
2023/08/27 07:01:33;;;;;;;13.50;6.60;;;;;;;23.36;50.19;100894.69;5007747;28;20049;-35
2023/08/27 07:04:00;;;;;;;9.93;5.85;;;;;;;23.37;50.26;100888.25;5019234;28;20184;-35
2023/08/27 07:06:26;;;;;;;10.48;6.75;;;;;;;23.37;50.69;100901.78;5005672;28;20049;-35
2023/08/27 07:08:53;;;;;;;13.05;8.25;;;;;;;23.38;50.85;100903.44;5005201;28;20101;-35
2023/08/27 07:11:20;;;;;;;16.70;9.80;;;;;;;23.39;50.26;100907.81;5004745;28;20391;-35
2023/08/27 07:13:46;;;;;;;17.80;11.07;;;;;;;23.38;50.90;100898.03;5006089;28;20121;-35
2023/08/27 07:16:16;;;;;;;17.20;9.98;;;;;;;23.39;50.33;100903.25;5007761;28;20054;-35
2023/08/27 07:18:43;;;;;;;15.77;9.95;;;;;;;23.40;50.73;100907.66;5006747;28;20449;-35
2023/08/27 07:21:09;;;;;;;17.10;10.20;;;;;;;23.40;50.68;100909.53;5004037;28;20054;-35
2023/08/27 07:23:36;;;;;;;14.32;8.45;;;;;;;23.39;50.29;100903.25;5004486;28;20042;-35
2023/08/27 07:26:03;;;;;;;15.65;8.45;;;;;;;23.40;50.79;100901.41;5007378;28;20408;-35
2023/08/27 07:28:31;;;;;;;13.02;7.93;;;;;;;23.40;50.88;100909.53;5003372;28;20042;-35
2023/08/27 07:30:57;;;;;;;15.02;7.30;;;;;;;23.39;50.56;100908.66;5007000;28;20342;-36
2023/08/27 07:33:24;;;;;;;11.45;7.22;;;;;;;23.39;50.52;100910.53;5007750;28;20421;-35
2023/08/27 07:35:51;;;;;;;10.50;6.38;;;;;;;23.38;50.27;100903.44;5008263;28;20297;-35
2023/08/27 07:38:17;;;;;;;10.07;6.22;;;;;;;23.38;50.56;100903.44;5002539;28;20111;-35
2023/08/27 07:40:45;;;;;;;8.43;5.60;;;;;;;23.37;50.48;100899.06;5007157;28;20127;-35
2023/08/27 07:43:11;;;;;;;8.57;5.78;;;;;;;23.38;50.10;100904.28;5006283;28;20096;-35
2023/08/27 07:45:38;;;;;;;10.20;5.22;;;;;;;23.38;50.52;100908.88;5004769;28;20157;-35
2023/08/27 07:48:05;;;;;;;11.95;5.43;;;;;;;23.38;50.96;100904.28;5005721;28;20093;-35
2023/08/27 07:50:31;;;;;;;15.60;6.10;;;;;;;23.38;50.60;100893.47;5003514;28;20596;-35
2023/08/27 07:52:58;;;;;;;24.33;6.00;;;;;;;23.40;50.71;100890.59;5003789;28;20050;-35
2023/08/27 07:55:25;;;;;;;14.32;6.53;;;;;;;23.41;50.85;100881.44;5004304;28;20501;-35
2023/08/27 07:57:51;;;;;;;17.20;5.63;;;;;;;23.41;50.63;100873.31;5006341;28;20057;-35
2023/08/27 08:00:20;;;;;;;17.02;5.35;;;;;;;23.43;50.96;100875.84;5012248;28;20124;-35
2023/08/27 08:02:46;;;;;;;13.90;5.22;;;;;;;23.44;50.81;100870.25;5012689;28;20357;-35
2023/08/27 08:05:13;;;;;;;14.18;4.75;;;;;;;23.44;50.77;100862.13;5009372;28;20050;-35
2023/08/27 08:07:41;;;;;;;13.43;5.28;;;;;;;23.44;50.57;100862.13;5007994;28;20591;-35
2023/08/27 08:10:08;;;;;;;17.20;5.22;;;;;;;23.43;50.30;100849.63;5007738;28;20434;-35
2023/08/27 08:12:35;;;;;;;14.95;5.13;;;;;;;23.44;50.40;100851.31;5006867;28;20315;-35
2023/08/27 08:15:02;;;;;;;14.82;4.70;;;;;;;23.46;50.30;100861.94;5005716;28;20462;-35
2023/08/27 08:17:29;;;;;;;10.45;4.22;;;;;;;23.45;49.99;100853.00;5006353;28;20137;-35
2023/08/27 08:20:12;;;;;;;14.85;5.20;;;;;;;23.45;50.03;100849.44;5005353;28;20327;-35
2023/08/27 08:22:39;;;;;;;10.30;4.68;;;;;;;23.45;49.89;100847.56;5005328;28;20089;-35
2023/08/27 08:25:06;;;;;;;8.05;4.05;;;;;;;23.45;50.60;100844.03;5006280;28;20425;-35
2023/08/27 08:27:33;;;;;;;9.52;4.13;;;;;;;23.45;50.14;100858.41;5005681;28;20504;-35
2023/08/27 08:30:01;;;;;;;10.43;4.35;;;;;;;23.47;50.19;100858.19;5001810;28;20051;-35
2023/08/27 08:32:28;;;;;;;8.13;3.95;;;;;;;23.48;50.35;100868.84;5005101;28;20472;-35
2023/08/27 08:34:55;;;;;;;10.32;3.47;;;;;;;23.48;50.35;100868.84;5003628;28;20081;-35
2023/08/27 08:37:22;;;;;;;7.20;3.50;;;;;;;23.51;49.90;100881.97;5005012;28;20068;-35
2023/08/27 08:39:49;;;;;;;7.55;3.92;;;;;;;23.51;50.01;100871.16;5005114;28;20053;-35
2023/08/27 08:42:32;;;;;;;10.82;4.03;;;;;;;23.51;49.69;100879.25;5003736;28;20077;-35
2023/08/27 08:45:24;;;;;;;7.30;3.20;;;;;;;23.53;49.42;100877.22;5003868;28;20319;-35
2023/08/27 08:47:53;;;;;;;5.78;3.00;;;;;;;23.54;49.55;100867.25;5004103;28;20050;-35
2023/08/27 08:50:21;;;;;;;5.95;3.30;;;;;;;23.52;49.74;100869.31;5009715;28;20054;-35
2023/08/27 08:52:49;;;;;;;6.35;2.83;;;;;;;23.51;49.78;100865.75;5007376;28;20053;-35
2023/08/27 08:55:18;;;;;;;5.90;3.28;;;;;;;23.51;49.88;100873.84;5021710;28;20050;-35
2023/08/27 08:57:51;;;;;;;4.30;2.63;;;;;;;23.49;49.47;100870.53;5009254;28;20050;-35
2023/08/27 09:00:18;;;;;;;4.55;2.72;;;;;;;23.51;49.87;100881.13;5010377;28;20052;-35
2023/08/27 09:02:46;;;;;;;5.30;2.90;;;;;;;23.48;49.92;100882.38;5007833;28;20136;-35
2023/08/27 09:05:17;;;;;;;6.00;3.22;;;;;;;23.48;49.87;100890.50;5007906;28;20422;-35
2023/08/27 09:07:46;;;;;;;5.30;3.10;;;;;;;23.48;49.80;100906.72;5008134;28;20046;-35
2023/08/27 09:10:13;;;;;;;6.32;3.22;;;;;;;23.48;49.42;100905.84;5007544;28;20045;-35
2023/08/27 09:12:41;;;;;;;5.18;2.80;;;;;;;23.48;50.11;100906.72;5003412;28;20058;-35
2023/08/27 09:15:09;;;;;;;6.03;3.28;;;;;;;23.49;49.71;100904.84;4999829;28;20060;-35
2023/08/27 09:17:38;;;;;;;7.85;3.10;;;;;;;23.49;50.14;100904.84;5002531;28;20049;-35
2023/08/27 09:20:07;;;;;;;4.18;3.65;;;;;;;23.51;49.90;100898.22;5004720;28;20045;-36
2023/08/27 09:22:35;;;;;;;4.18;2.72;;;;;;;23.53;49.53;100898.03;5001507;28;20046;-35
2023/08/27 09:25:03;;;;;;;3.55;2.30;;;;;;;23.54;49.48;100899.72;5002213;28;20045;-35
2023/08/27 09:27:31;;;;;;;3.88;2.50;;;;;;;23.54;49.40;100892.44;4999800;28;20462;-35
2023/08/27 09:30:00;;;;;;;3.40;1.83;;;;;;;23.56;49.91;100892.25;5002762;28;21429;-35
2023/08/27 09:32:27;;;;;;;3.80;1.90;;;;;;;23.59;49.58;100889.97;5002497;28;20521;-35
2023/08/27 09:35:03;;;;;;;6.15;2.03;;;;;;;23.60;49.08;100878.16;5003408;28;20076;-35
2023/08/27 09:37:40;;;;;;;7.70;2.38;;;;;;;23.67;49.18;100880.13;5004849;28;20053;-34
2023/08/27 09:40:08;;;;;;;3.25;2.47;;;;;;;23.70;49.28;100880.56;5006603;28;20046;-35
2023/08/27 09:42:36;;;;;;;5.07;2.50;;;;;;;23.75;49.51;100888.13;5003099;28;20054;-35
2023/08/27 09:45:04;;;;;;;5.10;2.25;;;;;;;23.79;49.09;100887.53;5004472;28;20046;-35
2023/08/27 09:47:32;;;;;;;4.20;2.10;;;;;;;23.85;48.89;100894.09;5006372;28;20088;-35
2023/08/27 09:50:07;;;;;;;2.42;1.77;;;;;;;23.87;48.98;100883.88;5005548;28;20053;-35
2023/08/27 09:52:34;;;;;;;4.03;1.88;;;;;;;23.91;48.76;100887.88;5001439;28;20050;-35
2023/08/27 09:55:02;;;;;;;3.05;1.55;;;;;;;23.93;48.46;100885.84;5005437;28;20089;-35
2023/08/27 09:57:30;;;;;;;2.70;1.50;;;;;;;23.94;48.59;100887.50;5006019;28;20058;-35
2023/08/27 09:59:57;;;;;;;3.53;1.20;;;;;;;23.96;48.70;100885.47;5003061;28;20465;-35
2023/08/27 10:02:24;;;;;;;1.92;1.13;;;;;;;23.96;48.61;100874.63;5002844;28;20061;-35
2023/08/27 10:04:56;;;;;;;2.75;1.30;;;;;;;23.97;48.54;100879.00;5004176;28;20140;-35
2023/08/27 10:07:23;;;;;;;2.67;1.27;;;;;;;23.98;47.51;100875.25;5004581;28;20056;-35
2023/08/27 10:09:53;;;;;;;2.30;1.50;;;;;;;23.98;47.44;100874.44;5009867;28;20045;-35
2023/08/27 10:12:21;;;;;;;2.25;1.30;;;;;;;23.97;47.44;100879.00;5006918;28;20661;-35
2023/08/27 10:14:48;;;;;;;1.88;1.13;;;;;;;23.97;47.35;100884.44;5009047;28;20112;-35
2023/08/27 10:17:15;;;;;;;2.22;1.30;;;;;;;23.97;48.04;100889.84;5007759;28;20133;-35
2023/08/27 10:19:43;;;;;;;4.25;1.20;;;;;;;23.96;47.75;100893.59;5007751;28;20058;-35
2023/08/27 10:22:10;;;;;;;5.40;1.38;;;;;;;23.95;47.53;100889.19;5008699;28;20081;-35
2023/08/27 10:24:39;;;;;;;2.00;1.00;;;;;;;23.94;47.48;100903.75;5005292;28;20049;-35
2023/08/27 10:27:06;;;;;;;2.08;0.90;;;;;;;23.93;47.67;100907.50;5006959;28;20041;-35
2023/08/27 10:29:34;;;;;;;1.27;0.88;;;;;;;23.91;47.35;100904.13;5005430;28;20078;-35
2023/08/27 10:32:02;;;;;;;2.33;0.90;;;;;;;23.89;47.84;100903.50;5004156;28;20058;-35
2023/08/27 10:34:30;;;;;;;3.15;0.95;;;;;;;23.87;47.34;100909.09;5006755;28;20037;-35
2023/08/27 10:37:03;;;;;;;1.00;0.73;;;;;;;23.86;47.20;100912.00;5007748;28;20049;-35
2023/08/27 10:39:31;;;;;;;;;;;;;;;23.83;47.32;100902.38;5006260;28;20056;-35
2023/08/27 10:41:58;;;;;;;3.55;1.10;;;;;;;23.85;47.37;100903.03;5004839;28;19949;-35
2023/08/27 10:44:25;;;;;;;1.95;0.70;;;;;;;23.81;47.77;100896.31;5007586;28;20426;-35
2023/08/27 10:47:09;;;;;;;1.52;1.13;;;;;;;23.78;47.53;100894.00;5008752;28;20120;-35
2023/08/27 10:49:37;;;;;;;2.63;0.88;;;;;;;23.80;47.34;100893.78;5007650;28;20084;-35
2023/08/27 10:52:16;;;;;;;3.00;1.00;;;;;;;23.77;47.42;100894.19;5007506;28;20677;-35
2023/08/27 10:54:45;;;;;;;1.58;0.93;;;;;;;23.77;47.41;100894.19;5007349;28;20045;-35
2023/08/27 10:57:23;;;;;;;5.20;3.10;;;;;;;23.75;47.24;100907.91;5007793;28;20137;-36
2023/08/27 10:59:54;;;;;;;10.95;7.05;;;;;;;23.75;47.66;100913.31;5008714;28;20049;-35
2023/08/27 11:02:20;;;;;;;13.25;8.73;;;;;;;23.75;47.90;100926.00;5010401;28;20112;-36
2023/08/27 11:04:50;;;;;;;13.73;9.27;;;;;;;23.75;47.48;100932.25;5006753;28;20176;-36
2023/08/27 11:07:22;;;;;;;12.95;8.27;;;;;;;23.76;48.18;100927.69;5004239;28;20057;-35
2023/08/27 11:09:53;;;;;;;11.60;6.57;;;;;;;23.80;47.21;100918.16;5006826;28;20048;-35
2023/08/27 11:12:24;;;;;;;10.00;6.38;;;;;;;23.83;47.39;100929.44;5007607;28;20484;-35
2023/08/27 11:14:52;;;;;;;8.63;5.88;;;;;;;23.89;46.88;100931.41;5006992;28;20054;-35
2023/08/27 11:17:25;;;;;;;7.15;4.50;;;;;;;23.93;46.92;100929.16;5009187;28;20050;-35
2023/08/27 11:19:53;;;;;;;6.35;3.60;;;;;;;23.96;46.97;100920.66;5008711;28;20462;-35
2023/08/27 11:22:21;;;;;;;5.47;3.33;;;;;;;23.99;46.61;100914.00;5005394;28;20480;-35
2023/08/27 11:24:53;;;;;;;4.97;3.33;;;;;;;24.01;46.31;100928.22;5005292;28;20391;-35
2023/08/27 11:27:21;;;;;;;7.55;3.10;;;;;;;24.02;46.32;100921.75;5005494;28;20042;-35